createdAt,value
2022-11-26T00:02:25.048Z,3.60
2022-11-26T00:04:57.265Z,3.61
2022-11-26T00:07:31.263Z,3.63
2022-11-26T00:10:03.142Z,3.67
2022-11-26T00:12:36.214Z,3.70
2022-11-26T00:15:17.330Z,3.72
2022-11-26T00:17:48.651Z,3.71
2022-11-26T00:20:20.998Z,3.70
2022-11-26T00:22:54.842Z,3.69
2022-11-26T00:25:28.868Z,3.66
2022-11-26T00:28:00.860Z,3.62
2022-11-26T00:30:31.745Z,3.59
2022-11-26T00:33:02.770Z,3.56
2022-11-26T00:35:33.779Z,3.53
2022-11-26T00:38:05.178Z,3.51
2022-11-26T00:40:36.629Z,3.49
2022-11-26T00:43:10.813Z,3.49
2022-11-26T00:45:41.933Z,3.49
2022-11-26T00:48:12.857Z,3.48
2022-11-26T00:50:48.014Z,3.45
2022-11-26T00:53:19.962Z,3.45
2022-11-26T00:55:51.841Z,3.44
2022-11-26T00:58:27.606Z,3.44
2022-11-26T01:01:01.238Z,3.46
2022-11-26T01:03:32.234Z,3.46
2022-11-26T01:06:03.265Z,3.47
2022-11-26T01:08:36.377Z,3.49
2022-11-26T01:11:07.957Z,3.52
2022-11-26T01:13:39.039Z,3.56
2022-11-26T01:16:20.798Z,3.60
2022-11-26T01:18:53.860Z,3.62
2022-11-26T01:21:26.539Z,3.66
2022-11-26T01:23:57.492Z,3.69
2022-11-26T01:26:33.620Z,3.69
2022-11-26T01:29:04.538Z,3.69
2022-11-26T01:31:35.757Z,3.70
2022-11-26T01:34:06.777Z,3.72
2022-11-26T01:36:39.991Z,3.74
2022-11-26T01:39:21.974Z,3.76
2022-11-26T01:41:59.583Z,3.78
2022-11-26T01:44:33.659Z,3.80
2022-11-26T01:47:19.162Z,3.81
2022-11-26T01:50:20.393Z,3.83
2022-11-26T01:52:51.667Z,3.86
2022-11-26T01:55:22.908Z,3.85
2022-11-26T01:57:54.458Z,3.84
2022-11-26T02:00:25.906Z,3.85
2022-11-26T02:02:57.697Z,3.84
2022-11-26T02:05:33.319Z,3.84
2022-11-26T02:08:05.161Z,3.84
2022-11-26T02:10:36.336Z,3.84
2022-11-26T02:13:07.794Z,3.85
2022-11-26T02:15:46.141Z,3.86
2022-11-26T02:18:17.897Z,3.88
2022-11-26T02:20:57.365Z,3.89
2022-11-26T02:24:00.821Z,3.89
2022-11-26T02:27:01.748Z,3.89
2022-11-26T02:29:48.217Z,3.90
2022-11-26T02:32:23.700Z,3.92
2022-11-26T02:35:03.442Z,3.94
2022-11-26T02:37:38.709Z,3.95
2022-11-26T02:40:09.912Z,3.97
2022-11-26T02:42:40.923Z,3.98
2022-11-26T02:45:15.512Z,3.98
2022-11-26T02:47:50.125Z,3.96
2022-11-26T02:50:25.377Z,3.94
2022-11-26T02:52:56.512Z,3.91
2022-11-26T02:55:31.148Z,3.89
2022-11-26T02:58:02.927Z,3.87
2022-11-26T03:00:36.207Z,3.87
2022-11-26T03:03:11.535Z,3.88
2022-11-26T03:05:44.216Z,3.86
2022-11-26T03:08:15.353Z,3.84
2022-11-26T03:10:46.366Z,3.83
2022-11-26T03:13:17.363Z,3.82
2022-11-26T03:15:48.321Z,3.82
2022-11-26T03:18:19.367Z,3.83
2022-11-26T03:20:52.539Z,3.83
2022-11-26T03:23:23.765Z,3.83
2022-11-26T03:25:54.631Z,3.83
2022-11-26T03:28:25.705Z,3.81
2022-11-26T03:30:56.548Z,3.81
2022-11-26T03:33:27.561Z,3.81
2022-11-26T03:35:58.468Z,3.81
2022-11-26T03:38:29.310Z,3.80
2022-11-26T03:41:02.758Z,3.81
2022-11-26T03:43:33.752Z,3.81
2022-11-26T03:46:04.705Z,3.80
2022-11-26T03:48:35.601Z,3.79
2022-11-26T03:51:06.769Z,3.79
2022-11-26T03:53:37.816Z,3.78
2022-11-26T03:56:09.961Z,3.79
2022-11-26T03:58:40.921Z,3.77
2022-11-26T04:01:13.212Z,3.78
2022-11-26T04:03:44.139Z,3.77
2022-11-26T04:06:15.136Z,3.77
2022-11-26T04:08:46.311Z,3.78
2022-11-26T04:11:17.250Z,3.77
2022-11-26T04:13:48.138Z,3.77
2022-11-26T04:16:19.153Z,3.76
2022-11-26T04:18:50.064Z,3.76
2022-11-26T04:21:21.029Z,3.79
2022-11-26T04:23:52.030Z,3.79
2022-11-26T04:26:22.960Z,3.79
2022-11-26T04:28:53.850Z,3.78
2022-11-26T04:31:25.035Z,3.79
2022-11-26T04:33:55.972Z,3.77
2022-11-26T04:36:27.523Z,3.77
2022-11-26T04:38:58.667Z,3.75
2022-11-26T04:41:29.593Z,3.75
2022-11-26T04:44:00.482Z,3.75
2022-11-26T04:46:31.415Z,3.75
2022-11-26T04:49:03.398Z,3.74
2022-11-26T04:51:34.446Z,3.74
2022-11-26T04:54:09.926Z,3.72
2022-11-26T04:56:43.833Z,3.71
2022-11-26T04:59:14.586Z,3.69
2022-11-26T05:01:45.538Z,3.69
2022-11-26T05:04:16.440Z,3.68
2022-11-26T05:06:47.222Z,3.68
2022-11-26T05:09:18.024Z,3.67
2022-11-26T05:11:48.799Z,3.67
2022-11-26T05:14:19.532Z,3.66
2022-11-26T05:16:50.346Z,3.67
2022-11-26T05:19:21.169Z,3.67
2022-11-26T05:21:51.933Z,3.69
2022-11-26T05:24:22.688Z,3.67
2022-11-26T05:26:56.943Z,3.67
2022-11-26T05:29:28.256Z,3.66
2022-11-26T05:31:59.025Z,3.64
2022-11-26T05:34:29.933Z,3.63
2022-11-26T05:37:00.693Z,3.61
2022-11-26T05:39:31.582Z,3.61
2022-11-26T05:42:07.648Z,3.60
2022-11-26T05:44:40.108Z,3.59
2022-11-26T05:47:11.159Z,3.59
2022-11-26T05:49:41.924Z,3.59
2022-11-26T05:52:12.722Z,3.58
2022-11-26T05:54:43.634Z,3.57
2022-11-26T05:57:14.781Z,3.55
2022-11-26T05:59:45.603Z,3.55
2022-11-26T06:02:16.550Z,3.54
2022-11-26T06:04:48.806Z,3.54
2022-11-26T06:07:19.654Z,3.53
2022-11-26T06:09:50.538Z,3.52
2022-11-26T06:12:21.318Z,3.50
2022-11-26T06:14:52.074Z,3.49
2022-11-26T06:17:22.878Z,3.49
2022-11-26T06:19:53.626Z,3.48
2022-11-26T06:22:24.416Z,3.46
2022-11-26T06:24:55.300Z,3.45
2022-11-26T06:27:26.062Z,3.44
2022-11-26T06:29:56.790Z,3.43
2022-11-26T06:32:27.554Z,3.41
2022-11-26T06:34:58.605Z,3.40
2022-11-26T06:37:29.424Z,3.39
2022-11-26T06:40:00.189Z,3.39
2022-11-26T06:42:31.038Z,3.39
2022-11-26T06:45:01.787Z,3.39
2022-11-26T06:47:32.496Z,3.37
2022-11-26T06:50:07.797Z,3.36
2022-11-26T06:52:41.384Z,3.35
2022-11-26T06:55:13.116Z,3.36
2022-11-26T06:57:43.868Z,3.34
2022-11-26T07:00:16.429Z,3.34
2022-11-26T07:02:47.258Z,3.35
2022-11-26T07:05:18.270Z,3.34
2022-11-26T07:07:49.183Z,3.33
2022-11-26T07:10:20.544Z,3.31
2022-11-26T07:12:51.357Z,3.28
2022-11-26T07:15:22.301Z,3.27
2022-11-26T07:17:53.172Z,3.26
2022-11-26T07:20:23.945Z,3.24
2022-11-26T07:22:55.241Z,3.23
2022-11-26T07:25:26.031Z,3.23
2022-11-26T07:27:56.902Z,3.23
2022-11-26T07:30:27.814Z,3.26
2022-11-26T07:32:58.637Z,3.25
2022-11-26T07:35:29.471Z,3.25
2022-11-26T07:38:00.737Z,3.23
2022-11-26T07:40:31.518Z,3.23
2022-11-26T07:43:03.298Z,3.23
2022-11-26T07:45:36.838Z,3.24
2022-11-26T07:48:10.411Z,3.21
2022-11-26T07:50:46.989Z,3.17
2022-11-26T07:53:17.844Z,3.13
2022-11-26T07:55:48.708Z,3.10
2022-11-26T07:58:19.517Z,3.08
2022-11-26T08:00:54.585Z,3.06
2022-11-26T08:03:25.926Z,3.04
2022-11-26T08:05:56.759Z,3.02
2022-11-26T08:08:27.557Z,3.02
2022-11-26T08:10:58.701Z,3.02
2022-11-26T08:13:29.556Z,3.01
2022-11-26T08:16:00.390Z,2.99
2022-11-26T08:18:31.633Z,2.99
2022-11-26T08:21:02.437Z,2.98
2022-11-26T08:23:34.374Z,2.98
2022-11-26T08:26:33.564Z,2.97
2022-11-26T08:29:02.086Z,2.97
2022-11-26T08:31:32.970Z,2.97
2022-11-26T08:34:04.459Z,2.97
2022-11-26T08:36:35.333Z,2.99
2022-11-26T08:39:08.479Z,3.01
2022-11-26T08:41:39.352Z,3.02
2022-11-26T08:44:10.301Z,3.01
2022-11-26T08:46:44.192Z,3.01
2022-11-26T08:49:17.228Z,3.01
2022-11-26T08:51:49.838Z,3.01
2022-11-26T08:54:21.160Z,3.01
2022-11-26T08:56:52.197Z,3.01
2022-11-26T08:59:24.342Z,3.03
2022-11-26T09:01:55.864Z,3.04
2022-11-26T09:04:27.332Z,3.05
2022-11-26T09:06:58.418Z,3.05
2022-11-26T09:09:30.133Z,3.06
2022-11-26T09:12:03.747Z,3.06
2022-11-26T09:14:41.411Z,3.07
2022-11-26T09:17:14.388Z,3.08
2022-11-26T09:19:45.532Z,3.11
2022-11-26T09:22:16.456Z,3.14
2022-11-26T09:24:47.258Z,3.15
2022-11-26T09:27:18.247Z,3.18
2022-11-26T09:29:50.528Z,3.19
2022-11-26T09:32:26.168Z,3.19
2022-11-26T09:35:00.725Z,3.19
2022-11-26T09:37:33.499Z,3.20
2022-11-26T09:40:04.656Z,3.22
2022-11-26T09:42:51.455Z,3.27
2022-11-26T09:45:34.644Z,3.31
2022-11-26T09:48:06.667Z,3.36
2022-11-26T09:50:40.639Z,3.41
2022-11-26T09:53:19.183Z,3.44
2022-11-26T09:55:53.193Z,3.49
2022-11-26T09:58:31.163Z,3.52
2022-11-26T10:01:05.455Z,3.52
2022-11-26T10:03:38.506Z,3.52
2022-11-26T10:06:19.675Z,3.53
2022-11-26T10:09:19.301Z,3.54
2022-11-26T10:12:00.082Z,3.54
2022-11-26T10:14:46.038Z,3.56
2022-11-26T10:17:33.684Z,3.56
2022-11-26T10:20:42.642Z,3.56
2022-11-26T10:23:23.364Z,3.57
2022-11-26T10:26:01.383Z,3.57
2022-11-26T10:28:35.631Z,3.56
2022-11-26T10:31:14.582Z,3.58
2022-11-26T10:33:52.142Z,3.59
2022-11-26T10:36:27.250Z,3.60
2022-11-26T10:38:57.379Z,3.61
2022-11-26T10:41:36.358Z,3.61
2022-11-26T10:44:40.910Z,3.62
2022-11-26T10:47:32.907Z,3.61
2022-11-26T10:53:23.485Z,3.64
2022-11-26T10:55:58.881Z,3.65
2022-11-26T10:58:32.637Z,3.67
2022-11-26T11:01:05.826Z,3.68
2022-11-26T11:06:45.409Z,3.72
2022-11-26T11:09:32.522Z,3.75
2022-11-26T11:12:23.674Z,3.79
2022-11-26T11:14:55.677Z,3.83
2022-11-26T11:17:35.315Z,3.86
2022-11-26T11:20:27.370Z,3.87
2022-11-26T11:23:08.124Z,3.88
2022-11-26T11:25:42.357Z,3.88
2022-11-26T11:28:21.084Z,3.89
2022-11-26T11:31:04.127Z,3.87
2022-11-26T11:33:36.576Z,3.84
2022-11-26T11:36:21.972Z,3.85
2022-11-26T11:38:57.201Z,3.83
2022-11-26T11:41:32.275Z,3.82
2022-11-26T11:44:09.238Z,3.82
2022-11-26T11:47:01.529Z,3.82
2022-11-26T11:50:01.102Z,3.84
2022-11-26T11:52:42.903Z,3.89
2022-11-26T11:55:26.149Z,3.93
2022-11-26T11:58:14.622Z,3.92
2022-11-26T12:00:53.539Z,3.91
2022-11-26T12:03:56.431Z,3.91
2022-11-26T12:06:40.444Z,3.89
2022-11-26T12:09:21.050Z,3.88
2022-11-26T12:11:59.425Z,3.85
2022-11-26T12:14:35.982Z,3.85
2022-11-26T12:17:14.528Z,3.83
2022-11-26T12:19:53.163Z,3.79
2022-11-26T12:22:28.064Z,3.75
2022-11-26T12:25:03.861Z,3.71
2022-11-26T12:27:41.718Z,3.70
2022-11-26T12:30:18.913Z,3.71
2022-11-26T12:32:54.160Z,3.71
2022-11-26T12:35:28.916Z,3.73
2022-11-26T12:38:03.590Z,3.75
2022-11-26T12:40:39.461Z,3.78
2022-11-26T12:43:17.679Z,3.80
2022-11-26T12:45:55.072Z,3.81
2022-11-26T12:48:34.746Z,3.81
2022-11-26T12:51:16.297Z,3.80
2022-11-26T12:53:53.382Z,3.77
2022-11-26T12:56:32.483Z,3.75
2022-11-26T12:59:11.836Z,3.72
2022-11-26T13:01:43.357Z,3.69
2022-11-26T13:04:36.607Z,3.65
2022-11-26T13:07:21.954Z,3.62
2022-11-26T13:10:05.233Z,3.59
2022-11-26T13:12:46.837Z,3.57
2022-11-26T13:15:26.454Z,3.54
2022-11-26T13:18:00.640Z,3.52
2022-11-26T13:20:54.656Z,3.50
2022-11-26T13:23:43.233Z,3.47
2022-11-26T13:26:34.893Z,3.45
2022-11-26T13:29:24.902Z,3.46
2022-11-26T13:32:14.811Z,3.45
2022-11-26T13:35:01.937Z,3.45
2022-11-26T13:37:48.837Z,3.47
2022-11-26T13:40:53.495Z,3.45
2022-11-26T13:43:54.352Z,3.43
2022-11-26T13:46:29.516Z,3.41
2022-11-26T13:49:08.025Z,3.38
2022-11-26T13:51:43.064Z,3.34
2022-11-26T13:54:20.047Z,3.28
2022-11-26T13:56:57.843Z,3.26
2022-11-26T13:59:30.144Z,3.24
2022-11-26T14:02:21.021Z,3.20
2022-11-26T14:04:55.184Z,3.17
2022-11-26T14:07:26.130Z,3.15
2022-11-26T14:10:00.157Z,3.13
2022-11-26T14:13:01.911Z,3.13
2022-11-26T14:15:56.979Z,3.13
2022-11-26T14:19:07.672Z,3.11
2022-11-26T14:22:03.824Z,3.07
2022-11-26T14:24:50.563Z,3.05
2022-11-26T14:27:23.941Z,3.03
2022-11-26T14:30:02.588Z,3.00
2022-11-26T14:32:39.288Z,2.96
2022-11-26T14:35:22.207Z,2.94
2022-11-26T14:37:59.440Z,2.90
2022-11-26T14:40:32.925Z,2.87
2022-11-26T14:43:20.046Z,2.86
2022-11-26T14:46:07.371Z,2.87
2022-11-26T14:48:45.693Z,2.85
2022-11-26T14:51:23.251Z,2.83
2022-11-26T14:53:54.927Z,2.80
2022-11-26T14:56:27.411Z,2.79
2022-11-26T14:59:02.958Z,2.77
2022-11-26T15:01:35.164Z,2.75
2022-11-26T15:04:08.733Z,2.75
2022-11-26T15:06:43.790Z,2.75
2022-11-26T15:09:17.345Z,2.74
2022-11-26T15:11:52.357Z,2.74
2022-11-26T15:14:29.471Z,2.75
2022-11-26T15:17:02.499Z,2.78
2022-11-26T15:19:38.427Z,2.79
2022-11-26T15:22:19.917Z,2.80
2022-11-26T15:24:53.811Z,2.80
2022-11-26T15:27:38.980Z,2.80
2022-11-26T15:30:22.572Z,2.80
2022-11-26T15:33:02.316Z,2.79
2022-11-26T15:35:34.147Z,2.79
2022-11-26T15:38:06.999Z,2.80
2022-11-26T15:40:48.260Z,2.81
2022-11-26T15:43:27.532Z,2.81
2022-11-26T15:46:04.526Z,2.81
2022-11-26T15:48:56.196Z,2.82
2022-11-26T15:51:42.952Z,2.86
2022-11-26T15:54:24.167Z,2.89
2022-11-26T15:56:58.441Z,2.93
2022-11-26T15:59:33.979Z,2.95
2022-11-26T16:02:18.780Z,2.98
2022-11-26T16:04:52.267Z,2.99
2022-11-26T16:07:25.788Z,2.99
2022-11-26T16:10:22.046Z,2.99
2022-11-26T16:13:23.266Z,3.00
2022-11-26T16:16:01.126Z,3.00
2022-11-26T16:18:38.054Z,3.00
2022-11-26T16:21:17.552Z,2.97
2022-11-26T16:23:55.122Z,2.97
2022-11-26T16:26:27.175Z,2.95
2022-11-26T16:28:58.057Z,2.95
2022-11-26T16:31:30.115Z,2.95
2022-11-26T16:34:08.116Z,2.95
2022-11-26T16:36:44.422Z,2.95
2022-11-26T16:39:16.777Z,2.94
2022-11-26T16:41:47.784Z,2.93
2022-11-26T16:44:18.947Z,2.91
2022-11-26T16:46:53.486Z,2.89
2022-11-26T16:49:26.009Z,2.86
2022-11-26T16:51:57.872Z,2.86
2022-11-26T16:54:28.812Z,2.86
2022-11-26T16:56:59.804Z,2.86
2022-11-26T16:59:31.371Z,2.84
2022-11-26T17:02:02.286Z,2.82
2022-11-26T17:04:33.245Z,2.81
2022-11-26T17:07:04.302Z,2.81
2022-11-26T17:09:35.996Z,2.79
2022-11-26T17:12:14.411Z,2.79
2022-11-26T17:14:45.814Z,2.77
2022-11-26T17:17:29.227Z,2.76
2022-11-26T17:20:00.362Z,2.75
2022-11-26T17:22:31.586Z,2.74
2022-11-26T17:25:02.628Z,2.73
2022-11-26T17:27:34.849Z,2.69
2022-11-26T17:30:07.689Z,2.65
2022-11-26T17:32:38.568Z,2.62
2022-11-26T17:35:10.487Z,2.59
2022-11-26T17:37:42.099Z,2.58
2022-11-26T17:40:19.277Z,2.58
2022-11-26T17:42:51.268Z,2.56
2022-11-26T17:45:22.826Z,2.57
2022-11-26T17:47:53.773Z,2.57
2022-11-26T17:50:27.432Z,2.56
2022-11-26T17:52:58.607Z,2.56
2022-11-26T17:55:29.960Z,2.55
2022-11-26T17:58:01.126Z,2.54
2022-11-26T18:00:32.829Z,2.55
2022-11-26T18:03:03.732Z,2.56
2022-11-26T18:05:37.900Z,2.58
2022-11-26T18:08:11.822Z,2.56
2022-11-26T18:10:43.348Z,2.58
2022-11-26T18:13:14.422Z,2.59
2022-11-26T18:15:45.835Z,2.59
2022-11-26T18:18:17.801Z,2.61
2022-11-26T18:20:49.238Z,2.64
2022-11-26T18:23:20.654Z,2.66
2022-11-26T18:25:52.330Z,2.67
2022-11-26T18:28:23.644Z,2.70
2022-11-26T18:31:00.406Z,2.75
2022-11-26T18:33:31.501Z,2.79
2022-11-26T18:36:02.627Z,2.81
2022-11-26T18:38:40.308Z,2.82
2022-11-26T18:41:11.578Z,2.84
2022-11-26T18:43:43.362Z,2.84
2022-11-26T18:46:17.056Z,2.82
2022-11-26T18:48:50.014Z,2.81
2022-11-26T18:51:21.448Z,2.80
2022-11-26T18:53:52.795Z,2.81
2022-11-26T18:56:24.685Z,2.80
2022-11-26T18:58:56.746Z,2.80
2022-11-26T19:01:30.159Z,2.80
2022-11-26T19:04:05.281Z,2.81
2022-11-26T19:06:35.296Z,2.82
2022-11-26T19:09:10.848Z,2.82
2022-11-26T19:11:42.011Z,2.83
2022-11-26T19:14:14.713Z,2.83
2022-11-26T19:16:49.330Z,2.84
2022-11-26T19:19:20.826Z,2.85
2022-11-26T19:21:56.642Z,2.86
2022-11-26T19:24:30.898Z,2.84
2022-11-26T19:27:02.009Z,2.84
2022-11-26T19:29:32.964Z,2.85
2022-11-26T19:32:04.105Z,2.85
2022-11-26T19:34:35.203Z,2.86
2022-11-26T19:37:07.852Z,2.86
2022-11-26T19:39:39.582Z,2.86
2022-11-26T19:42:10.761Z,2.87
2022-11-26T19:44:41.662Z,2.86
2022-11-26T19:47:12.760Z,2.86
2022-11-26T19:49:43.874Z,2.85
2022-11-26T19:52:14.773Z,2.86
2022-11-26T19:54:45.958Z,2.86
2022-11-26T19:57:17.117Z,2.85
2022-11-26T19:59:48.426Z,2.84
2022-11-26T20:02:19.356Z,2.84
2022-11-26T20:04:50.475Z,2.84
2022-11-26T20:07:21.648Z,2.84
2022-11-26T20:09:54.610Z,2.85
2022-11-26T20:12:25.719Z,2.86
2022-11-26T20:14:57.118Z,2.85
2022-11-26T20:17:28.290Z,2.87
2022-11-26T20:19:59.368Z,2.88
2022-11-26T20:22:30.600Z,2.89
2022-11-26T20:25:01.415Z,2.91
2022-11-26T20:27:32.546Z,2.92
2022-11-26T20:30:05.017Z,2.94
2022-11-26T20:32:37.598Z,2.94
2022-11-26T20:35:10.722Z,2.93
2022-11-26T20:37:41.686Z,2.93
2022-11-26T20:40:13.413Z,2.94
2022-11-26T20:42:45.928Z,2.94
2022-11-26T20:45:17.028Z,2.94
2022-11-26T20:47:48.124Z,2.93
2022-11-26T20:50:19.854Z,2.92
2022-11-26T20:52:50.638Z,2.93
2022-11-26T20:55:22.224Z,2.95
2022-11-26T20:57:54.028Z,2.95
2022-11-26T21:00:27.707Z,2.96
2022-11-26T21:03:00.822Z,2.98
2022-11-26T21:05:34.226Z,3.00
2022-11-26T21:08:05.355Z,3.01
2022-11-26T21:10:36.392Z,3.01
2022-11-26T21:13:07.357Z,3.01
2022-11-26T21:15:40.692Z,3.00
2022-11-26T21:18:12.248Z,2.99
2022-11-26T21:20:44.702Z,2.98
2022-11-26T21:23:16.084Z,2.99
2022-11-26T21:25:47.256Z,3.00
2022-11-26T21:28:20.062Z,2.99
2022-11-26T21:30:51.217Z,3.00
2022-11-26T21:33:22.593Z,3.00
2022-11-26T21:35:53.884Z,3.00
2022-11-26T21:38:26.768Z,3.00
2022-11-26T21:40:57.872Z,2.98
2022-11-26T21:43:28.651Z,2.98
2022-11-26T21:46:04.193Z,2.99
2022-11-26T21:48:36.074Z,2.97
2022-11-26T21:51:10.550Z,2.95
2022-11-26T21:53:41.508Z,2.93
2022-11-26T21:56:16.513Z,2.91
2022-11-26T21:58:47.891Z,2.87
2022-11-26T22:01:24.691Z,2.86
2022-11-26T22:03:59.677Z,2.86
2022-11-26T22:06:31.563Z,2.85
2022-11-26T22:09:03.088Z,2.83
2022-11-26T22:11:36.799Z,2.83
2022-11-26T22:14:08.892Z,2.84
2022-11-26T22:16:40.219Z,2.85
2022-11-26T22:19:11.604Z,2.86
2022-11-26T22:21:43.800Z,2.86
2022-11-26T22:24:17.354Z,2.87
2022-11-26T22:26:48.957Z,2.89
2022-11-26T22:29:21.025Z,2.88
2022-11-26T22:31:51.975Z,2.87
2022-11-26T22:34:24.671Z,2.87
2022-11-26T22:36:55.630Z,2.86
2022-11-26T22:39:26.570Z,2.86
2022-11-26T22:41:57.414Z,2.87
2022-11-26T22:44:28.282Z,2.87
2022-11-26T22:46:59.284Z,2.88
2022-11-26T22:49:30.296Z,2.87
2022-11-26T22:52:01.166Z,2.85
2022-11-26T22:54:32.323Z,2.85
2022-11-26T22:57:03.208Z,2.84
2022-11-26T22:59:34.092Z,2.82
2022-11-26T23:02:04.949Z,2.79
2022-11-26T23:04:35.873Z,2.81
2022-11-26T23:07:06.880Z,2.82
2022-11-26T23:09:41.232Z,2.85
2022-11-26T23:12:14.742Z,2.86
2022-11-26T23:14:45.564Z,2.86
2022-11-26T23:17:16.388Z,2.85
2022-11-26T23:19:47.232Z,2.84
2022-11-26T23:22:18.102Z,2.83
2022-11-26T23:24:49.086Z,2.81
2022-11-26T23:27:20.058Z,2.81
2022-11-26T23:29:51.091Z,2.81
2022-11-26T23:32:22.986Z,2.80
2022-11-26T23:34:53.824Z,2.80
2022-11-26T23:37:24.946Z,2.80
2022-11-26T23:39:55.751Z,2.82
2022-11-26T23:42:27.168Z,2.81
2022-11-26T23:44:58.054Z,2.80
2022-11-26T23:47:28.982Z,2.78
2022-11-26T23:50:01.099Z,2.75
2022-11-26T23:52:32.411Z,2.74
2022-11-26T23:55:03.326Z,2.74
2022-11-26T23:57:34.218Z,2.75
